Time;durP1;ratioP1;P1;durP2;ratioP2;P2;SDS_P1;SDS_P2;PMS_P1;PMS_P2;Temp;Humidity;BMP_temperature;BMP_pressure;BME280_temperature;BME280_humidity;BME280_pressure;Samples;Min_cycle;Max_cycle;Signal;HPM_P1;HPM_P2
2022/11/29 00:01:22;;;;;;;8.57;2.30;;;;;;;;;;5050791;28;20029;-74
2022/11/29 00:03:48;;;;;;;7.40;1.83;;;;;;;;;;5051091;28;20044;-74
2022/11/29 00:06:17;;;;;;;9.43;2.00;;;;;;;;;;5050898;28;20033;-74
2022/11/29 00:08:42;;;;;;;12.02;2.65;;;;;;;;;;5051033;28;20116;-74
2022/11/29 00:12:10;;;;;;;12.43;2.30;;;;;;;;;;5050594;28;20104;-74
2022/11/29 00:13:59;;;;;;;6.55;2.22;;;;;;;;;;5050388;28;20065;-74
2022/11/29 00:16:24;;;;;;;6.85;2.10;;;;;;;;;;5050618;28;20093;-74
2022/11/29 00:18:50;;;;;;;7.85;2.38;;;;;;;;;;5050851;28;20543;-74
2022/11/29 00:21:15;;;;;;;9.95;1.98;;;;;;;;;;5050272;28;20036;-74
2022/11/29 00:23:40;;;;;;;8.77;1.92;;;;;;;;;;5050937;28;20086;-74
2022/11/29 00:26:09;;;;;;;9.30;2.35;;;;;;;;;;5050547;28;20035;-74
2022/11/29 00:28:35;;;;;;;10.27;2.40;;;;;;;;;;5050342;28;20500;-74
2022/11/29 00:31:13;;;;;;;6.35;1.77;;;;;;;;;;5050497;28;20029;-74
2022/11/29 00:33:39;;;;;;;8.25;2.10;;;;;;;;;;5050280;28;20025;-74
2022/11/29 00:36:04;;;;;;;6.30;1.60;;;;;;;;;;5049863;28;20110;-74
2022/11/29 00:38:30;;;;;;;5.13;1.70;;;;;;;;;;5050393;28;20032;-74
2022/11/29 00:40:55;;;;;;;6.30;1.80;;;;;;;;;;5050020;28;20021;-74
2022/11/29 00:43:20;;;;;;;8.48;1.90;;;;;;;;;;5050007;28;20114;-74
2022/11/29 00:45:46;;;;;;;7.80;1.77;;;;;;;;;;5050367;28;20029;-74
2022/11/29 00:48:11;;;;;;;5.10;1.50;;;;;;;;;;5050258;28;20025;-75
2022/11/29 00:50:36;;;;;;;8.50;1.98;;;;;;;;;;5050065;28;20021;-75
2022/11/29 00:53:02;;;;;;;10.27;2.30;;;;;;;;;;5048812;28;20033;-74
2022/11/29 00:55:27;;;;;;;7.25;1.98;;;;;;;;;;5050106;28;20017;-75
2022/11/29 00:57:53;;;;;;;8.43;2.20;;;;;;;;;;5049225;28;20053;-74
2022/11/29 01:00:18;;;;;;;7.32;2.13;;;;;;;;;;5049849;28;20036;-76
2022/11/29 01:02:45;;;;;;;9.45;2.10;;;;;;;;;;5049952;28;20033;-75
2022/11/29 01:05:10;;;;;;;8.93;2.47;;;;;;;;;;5048545;28;20032;-75
2022/11/29 01:07:35;;;;;;;7.78;2.22;;;;;;;;;;5049730;28;20025;-74
2022/11/29 01:10:01;;;;;;;11.00;2.58;;;;;;;;;;5049960;28;20021;-74
2022/11/29 01:12:26;;;;;;;10.02;2.00;;;;;;;;;;5049147;28;20396;-74
2022/11/29 01:14:51;;;;;;;7.78;2.40;;;;;;;;;;5049711;28;20021;-74
2022/11/29 01:17:17;;;;;;;10.02;2.53;;;;;;;;;;5049450;28;20039;-74
2022/11/29 01:19:42;;;;;;;7.65;2.08;;;;;;;;;;5049678;28;20032;-74
2022/11/29 01:22:08;;;;;;;9.63;2.08;;;;;;;;;;5049445;28;20039;-74
2022/11/29 01:24:33;;;;;;;8.68;1.92;;;;;;;;;;5049579;28;20144;-74
2022/11/29 01:26:58;;;;;;;10.05;1.80;;;;;;;;;;5049191;28;20025;-74
2022/11/29 01:29:24;;;;;;;7.07;1.80;;;;;;;;;;5049855;28;20072;-74
2022/11/29 01:31:49;;;;;;;7.88;1.52;;;;;;;;;;5049185;28;20040;-75
2022/11/29 01:34:14;;;;;;;5.18;1.60;;;;;;;;;;5049458;28;20143;-74
2022/11/29 01:36:40;;;;;;;6.60;1.90;;;;;;;;;;5049295;28;20036;-74
2022/11/29 01:39:06;;;;;;;4.38;1.45;;;;;;;;;;5049563;28;20031;-74
2022/11/29 01:41:33;;;;;;;9.65;1.60;;;;;;;;;;5049346;28;20029;-74
2022/11/29 01:44:11;;;;;;;4.80;1.33;;;;;;;;;;5049095;28;20115;-74
2022/11/29 01:46:40;;;;;;;5.82;1.23;;;;;;;;;;5050553;28;20043;-74
2022/11/29 01:49:14;;;;;;;4.25;1.20;;;;;;;;;;5053763;28;20092;-74
2022/11/29 01:51:46;;;;;;;16.17;1.50;;;;;;;;;;5053552;28;20032;-74
2022/11/29 01:54:13;;;;;;;5.18;1.20;;;;;;;;;;5053539;28;20029;-74
2022/11/29 01:56:39;;;;;;;6.90;1.10;;;;;;;;;;5053097;28;20539;-74
2022/11/29 01:59:10;;;;;;;4.22;1.08;;;;;;;;;;5053227;28;20032;-74
2022/11/29 02:01:36;;;;;;;6.00;1.23;;;;;;;;;;5053336;28;20111;-74
2022/11/29 02:04:02;;;;;;;4.80;1.02;;;;;;;;;;5053232;28;20112;-74
2022/11/29 02:06:29;;;;;;;3.17;1.10;;;;;;;;;;5053176;28;20033;-74
2022/11/29 02:08:55;;;;;;;6.63;1.30;;;;;;;;;;5053100;28;20568;-74
2022/11/29 02:11:29;;;;;;;6.00;1.15;;;;;;;;;;5053143;28;20021;-74
2022/11/29 02:14:27;;;;;;;9.52;1.60;;;;;;;;;;5052654;28;20032;-74
2022/11/29 02:17:04;;;;;;;5.03;0.82;;;;;;;;;;5053023;28;20458;-75
2022/11/29 02:19:41;;;;;;;6.38;1.25;;;;;;;;;;5051402;28;20025;-75
2022/11/29 02:22:18;;;;;;;6.82;1.20;;;;;;;;;;5052824;28;20079;-74
2022/11/29 02:25:11;;;;;;;5.65;0.88;;;;;;;;;;5052959;28;20104;-74
2022/11/29 02:28:05;;;;;;;3.35;0.85;;;;;;;;;;5052503;28;20028;-74
2022/11/29 02:30:56;;;;;;;5.18;1.08;;;;;;;;;;5052935;28;20634;-75
2022/11/29 02:33:40;;;;;;;5.72;1.27;;;;;;;;;;5052432;28;20036;-74
2022/11/29 02:36:45;;;;;;;8.90;1.33;;;;;;;;;;5051258;28;20025;-74
2022/11/29 02:39:13;;;;;;;5.10;0.98;;;;;;;;;;5039840;28;20104;-74
2022/11/29 02:42:07;;;;;;;3.30;0.73;;;;;;;;;;5052579;28;20025;-74
2022/11/29 02:44:49;;;;;;;4.72;1.00;;;;;;;;;;5052095;28;20059;-74
2022/11/29 02:47:39;;;;;;;3.80;0.82;;;;;;;;;;5052674;28;20147;-75
2022/11/29 02:50:26;;;;;;;5.07;1.00;;;;;;;;;;5052643;28;20040;-75
2022/11/29 02:53:19;;;;;;;4.03;1.20;;;;;;;;;;5052047;28;20029;-75
2022/11/29 02:55:56;;;;;;;6.78;1.20;;;;;;;;;;5052389;28;20091;-74
2022/11/29 02:58:40;;;;;;;5.00;1.30;;;;;;;;;;5051293;28;20041;-75
2022/11/29 03:01:33;;;;;;;3.40;1.05;;;;;;;;;;5052286;28;20570;-74
2022/11/29 03:04:22;;;;;;;5.22;1.10;;;;;;;;;;5041996;28;20055;-74
2022/11/29 03:07:14;;;;;;;2.47;0.82;;;;;;;;;;5052240;28;20021;-74
2022/11/29 03:10:04;;;;;;;5.85;0.98;;;;;;;;;;5051976;28;20029;-74
2022/11/29 03:12:37;;;;;;;3.70;1.00;;;;;;;;;;5051491;28;20036;-74
2022/11/29 03:15:21;;;;;;;8.85;1.45;;;;;;;;;;5051888;28;20033;-74
2022/11/29 03:17:56;;;;;;;6.45;1.15;;;;;;;;;;5051895;28;20056;-75
2022/11/29 03:20:34;;;;;;;4.50;1.10;;;;;;;;;;5051962;28;20040;-74
2022/11/29 03:23:09;;;;;;;6.95;1.40;;;;;;;;;;5051829;28;20031;-74
2022/11/29 03:25:47;;;;;;;5.35;0.98;;;;;;;;;;5051898;28;20494;-74
2022/11/29 03:28:44;;;;;;;5.07;0.90;;;;;;;;;;5051357;28;20021;-74
2022/11/29 03:31:33;;;;;;;8.57;1.85;;;;;;;;;;5048339;28;20047;-75
2022/11/29 03:34:10;;;;;;;6.50;1.20;;;;;;;;;;5051358;28;20055;-75
2022/11/29 03:36:44;;;;;;;7.65;1.38;;;;;;;;;;5051675;28;20061;-75
2022/11/29 03:39:21;;;;;;;6.72;1.35;;;;;;;;;;5051398;28;20021;-74
2022/11/29 03:41:51;;;;;;;7.07;1.10;;;;;;;;;;5051525;28;20145;-74
2022/11/29 03:44:23;;;;;;;5.43;1.13;;;;;;;;;;5050975;28;20029;-74
2022/11/29 03:46:57;;;;;;;4.65;1.23;;;;;;;;;;5051443;28;20029;-74
2022/11/29 03:49:28;;;;;;;5.25;1.13;;;;;;;;;;5051231;28;20041;-74
2022/11/29 03:52:14;;;;;;;5.45;1.20;;;;;;;;;;5051350;28;20032;-75
2022/11/29 03:55:10;;;;;;;7.90;1.50;;;;;;;;;;5051100;28;20021;-74
2022/11/29 03:58:00;;;;;;;5.68;1.15;;;;;;;;;;5050730;28;20177;-74
2022/11/29 04:00:34;;;;;;;7.05;1.30;;;;;;;;;;5051061;28;20167;-74
2022/11/29 04:03:08;;;;;;;6.03;1.15;;;;;;;;;;5051157;28;20021;-74
2022/11/29 04:06:22;;;;;;;6.97;1.65;;;;;;;;;;5050994;28;20183;-74
2022/11/29 04:09:09;;;;;;;6.45;1.20;;;;;;;;;;5048354;28;20095;-74
2022/11/29 04:12:11;;;;;;;6.05;1.30;;;;;;;;;;5050841;28;20368;-74
2022/11/29 04:15:07;;;;;;;4.40;1.05;;;;;;;;;;5050584;28;20055;-74
2022/11/29 04:17:40;;;;;;;6.28;1.20;;;;;;;;;;5050764;28;20048;-73
2022/11/29 04:20:43;;;;;;;3.60;0.85;;;;;;;;;;5050897;28;20549;-74
2022/11/29 04:23:30;;;;;;;6.03;1.20;;;;;;;;;;5050526;28;20044;-74
2022/11/29 04:26:03;;;;;;;3.70;0.98;;;;;;;;;;5050688;28;20029;-74
2022/11/29 04:28:56;;;;;;;4.63;0.95;;;;;;;;;;5050303;28;20037;-74
2022/11/29 04:31:45;;;;;;;5.18;1.20;;;;;;;;;;5050694;28;20036;-74
2022/11/29 04:34:50;;;;;;;5.18;0.90;;;;;;;;;;5050235;28;20036;-75
2022/11/29 04:37:27;;;;;;;6.50;1.33;;;;;;;;;;5049326;28;20426;-75
2022/11/29 04:39:58;;;;;;;7.43;1.30;;;;;;;;;;5050334;28;20135;-74
2022/11/29 04:42:43;;;;;;;7.13;1.17;;;;;;;;;;5050091;28;20056;-74
2022/11/29 04:45:27;;;;;;;6.30;1.20;;;;;;;;;;5045917;28;20052;-74
2022/11/29 04:48:07;;;;;;;5.45;1.00;;;;;;;;;;5050430;28;20485;-75
2022/11/29 04:50:42;;;;;;;4.97;1.30;;;;;;;;;;5050090;28;20018;-74
2022/11/29 04:53:29;;;;;;;7.72;1.42;;;;;;;;;;5048961;28;20400;-74
2022/11/29 04:56:08;;;;;;;7.72;1.40;;;;;;;;;;5049835;28;20048;-74
2022/11/29 04:58:52;;;;;;;6.32;1.23;;;;;;;;;;5049822;28;20068;-74
2022/11/29 05:01:21;;;;;;;6.72;1.23;;;;;;;;;;5050082;28;20497;-75
2022/11/29 05:03:59;;;;;;;7.65;1.48;;;;;;;;;;5049966;28;20029;-75
2022/11/29 05:06:29;;;;;;;5.55;1.00;;;;;;;;;;5049838;28;20032;-74
2022/11/29 05:09:09;;;;;;;3.80;1.20;;;;;;;;;;5050102;28;20036;-75
2022/11/29 05:11:53;;;;;;;7.75;1.75;;;;;;;;;;5049802;28;20055;-74
2022/11/29 05:14:36;;;;;;;6.28;1.30;;;;;;;;;;5047780;28;20029;-74
2022/11/29 05:17:26;;;;;;;6.07;1.02;;;;;;;;;;5049846;28;20075;-74
2022/11/29 05:20:10;;;;;;;6.63;1.40;;;;;;;;;;5049803;28;20126;-74
2022/11/29 05:22:44;;;;;;;4.05;1.10;;;;;;;;;;5049697;28;20495;-74
2022/11/29 05:25:25;;;;;;;7.30;1.30;;;;;;;;;;5049597;28;20070;-74
2022/11/29 05:28:03;;;;;;;6.15;1.15;;;;;;;;;;5049691;28;20025;-74
2022/11/29 05:30:46;;;;;;;3.60;1.10;;;;;;;;;;5049310;28;20473;-75
2022/11/29 05:33:40;;;;;;;7.78;1.05;;;;;;;;;;5049576;28;20045;-74
2022/11/29 05:36:39;;;;;;;4.55;1.00;;;;;;;;;;5049336;28;20033;-74
2022/11/29 05:39:23;;;;;;;5.05;1.00;;;;;;;;;;5048407;28;20025;-74
2022/11/29 05:42:17;;;;;;;6.10;0.98;;;;;;;;;;5049551;28;20029;-74
2022/11/29 05:45:01;;;;;;;7.15;1.35;;;;;;;;;;5049294;28;20025;-74
2022/11/29 05:47:57;;;;;;;4.38;1.00;;;;;;;;;;5049429;28;20029;-74
2022/11/29 05:51:10;;;;;;;6.38;1.20;;;;;;;;;;5044977;28;20063;-74
2022/11/29 05:53:48;;;;;;;4.18;1.20;;;;;;;;;;5010082;28;20026;-75
2022/11/29 05:56:35;;;;;;;4.03;1.00;;;;;;;;;;5026259;28;20442;-75
2022/11/29 05:59:08;;;;;;;5.63;1.02;;;;;;;;;;5043221;28;20040;-75
2022/11/29 06:02:00;;;;;;;9.30;1.10;;;;;;;;;;5049241;28;20078;-75
2022/11/29 06:05:13;;;;;;;4.35;0.98;;;;;;;;;;5049142;28;20029;-75
2022/11/29 06:08:00;;;;;;;4.35;1.13;;;;;;;;;;5017235;28;20033;-74
2022/11/29 06:10:32;;;;;;;5.47;1.15;;;;;;;;;;5048877;28;20032;-74
2022/11/29 06:13:24;;;;;;;6.53;1.17;;;;;;;;;;5048754;28;20083;-74
2022/11/29 06:16:27;;;;;;;3.67;1.08;;;;;;;;;;5048947;28;20032;-74
2022/11/29 06:19:18;;;;;;;4.70;1.17;;;;;;;;;;5049382;28;20025;-74
2022/11/29 06:22:00;;;;;;;6.75;1.42;;;;;;;;;;5038302;28;20040;-74
2022/11/29 06:25:00;;;;;;;3.38;1.15;;;;;;;;;;5048993;28;20036;-74
2022/11/29 06:27:56;;;;;;;4.43;0.97;;;;;;;;;;5048656;28;20322;-74
2022/11/29 06:30:29;;;;;;;5.65;1.20;;;;;;;;;;5048878;28;20040;-74
2022/11/29 06:33:42;;;;;;;6.03;1.30;;;;;;;;;;5050309;28;20511;-74
2022/11/29 06:36:24;;;;;;;4.85;1.10;;;;;;;;;;5029706;28;20044;-74
2022/11/29 06:38:50;;;;;;;6.93;1.30;;;;;;;;;;5050602;28;20033;-74
2022/11/29 06:41:19;;;;;;;4.97;1.20;;;;;;;;;;5052549;28;20025;-75
2022/11/29 06:43:45;;;;;;;3.88;1.08;;;;;;;;;;5052252;28;20021;-74
2022/11/29 06:46:39;;;;;;;5.82;1.25;;;;;;;;;;5052295;28;20107;-75
2022/11/29 06:49:11;;;;;;;5.25;1.35;;;;;;;;;;5052544;28;20029;-75
2022/11/29 06:51:50;;;;;;;6.93;1.42;;;;;;;;;;5052067;28;20025;-74
2022/11/29 06:54:31;;;;;;;5.15;1.33;;;;;;;;;;5052128;28;20036;-74
2022/11/29 06:57:05;;;;;;;4.95;1.30;;;;;;;;;;5052070;28;20547;-74
2022/11/29 07:00:03;;;;;;;6.43;1.48;;;;;;;;;;5052436;28;20033;-74
2022/11/29 07:02:37;;;;;;;6.18;1.33;;;;;;;;;;5052019;28;20091;-74
2022/11/29 07:05:18;;;;;;;5.75;1.60;;;;;;;;;;5052228;28;20033;-74
2022/11/29 07:07:45;;;;;;;3.70;1.40;;;;;;;;;;5052119;28;20035;-75
2022/11/29 07:10:16;;;;;;;5.35;1.48;;;;;;;;;;5052146;28;20036;-74
2022/11/29 07:12:42;;;;;;;8.23;1.60;;;;;;;;;;5050233;28;20477;-74
2022/11/29 07:15:16;;;;;;;4.13;1.65;;;;;;;;;;5051921;28;20044;-75
2022/11/29 07:17:47;;;;;;;8.18;1.77;;;;;;;;;;5051729;28;20037;-75
2022/11/29 07:20:52;;;;;;;4.93;1.60;;;;;;;;;;5052066;28;20056;-74
2022/11/29 07:23:46;;;;;;;8.07;1.75;;;;;;;;;;5051813;28;20029;-74
2022/11/29 07:26:21;;;;;;;8.25;1.80;;;;;;;;;;5046559;28;20109;-73
2022/11/29 07:29:09;;;;;;;7.32;1.50;;;;;;;;;;5051419;28;20027;-75
2022/11/29 07:31:41;;;;;;;6.88;1.90;;;;;;;;;;5066766;28;20033;-75
2022/11/29 07:34:15;;;;;;;4.60;1.25;;;;;;;;;;5051383;28;20435;-75
2022/11/29 07:37:17;;;;;;;6.32;1.40;;;;;;;;;;5051471;28;20031;-74
2022/11/29 07:40:01;;;;;;;8.27;1.67;;;;;;;;;;5050593;28;20045;-74
2022/11/29 07:42:42;;;;;;;8.15;1.50;;;;;;;;;;5050969;28;20029;-74
2022/11/29 07:45:19;;;;;;;6.80;1.38;;;;;;;;;;5050371;28;20044;-74
2022/11/29 07:47:45;;;;;;;7.00;1.30;;;;;;;;;;5051196;28;20048;-75
2022/11/29 07:50:11;;;;;;;5.07;1.30;;;;;;;;;;5051486;28;20473;-74
2022/11/29 07:52:36;;;;;;;5.80;1.77;;;;;;;;;;5051063;28;20025;-73
2022/11/29 07:55:02;;;;;;;6.32;1.55;;;;;;;;;;5049880;28;20377;-74
2022/11/29 07:57:27;;;;;;;6.78;1.60;;;;;;;;;;5050471;28;20056;-75
2022/11/29 07:59:52;;;;;;;6.03;1.50;;;;;;;;;;5051455;28;20017;-74
2022/11/29 08:02:28;;;;;;;5.30;1.30;;;;;;;;;;5051080;28;20033;-74
2022/11/29 08:04:54;;;;;;;5.43;1.67;;;;;;;;;;5050869;28;20425;-74
2022/11/29 08:07:20;;;;;;;5.22;1.20;;;;;;;;;;5050936;28;20025;-74
2022/11/29 08:09:45;;;;;;;4.22;1.40;;;;;;;;;;5050914;28;20057;-74
2022/11/29 08:12:11;;;;;;;7.05;1.55;;;;;;;;;;5050215;28;20021;-74
2022/11/29 08:14:37;;;;;;;5.75;1.30;;;;;;;;;;5050770;28;20523;-74
2022/11/29 08:17:02;;;;;;;6.90;1.23;;;;;;;;;;5050608;28;20041;-75
2022/11/29 08:19:28;;;;;;;4.47;1.25;;;;;;;;;;5050952;28;20033;-74
2022/11/29 08:21:53;;;;;;;5.75;1.27;;;;;;;;;;5050888;28;20051;-74
2022/11/29 08:24:19;;;;;;;5.93;1.63;;;;;;;;;;5050610;28;20056;-74
2022/11/29 08:26:44;;;;;;;3.90;1.20;;;;;;;;;;5050398;28;20473;-75
2022/11/29 08:29:09;;;;;;;3.63;1.00;;;;;;;;;;5050479;28;20025;-74
2022/11/29 08:31:35;;;;;;;7.57;1.20;;;;;;;;;;5050403;28;20028;-74
2022/11/29 08:34:00;;;;;;;6.05;1.35;;;;;;;;;;5050282;28;20366;-74
2022/11/29 08:36:26;;;;;;;5.38;1.20;;;;;;;;;;5050283;28;20106;-74
2022/11/29 08:38:51;;;;;;;4.60;1.42;;;;;;;;;;5050597;28;20055;-74
2022/11/29 08:41:17;;;;;;;7.22;1.90;;;;;;;;;;5050421;28;20025;-74
2022/11/29 08:43:43;;;;;;;4.50;1.20;;;;;;;;;;5049833;28;20058;-74
2022/11/29 08:46:09;;;;;;;5.55;1.35;;;;;;;;;;5050398;28;20081;-74
2022/11/29 08:48:35;;;;;;;5.35;1.42;;;;;;;;;;5049985;28;20037;-74
2022/11/29 08:51:02;;;;;;;6.28;1.40;;;;;;;;;;5050277;28;20442;-74
2022/11/29 08:53:40;;;;;;;6.10;1.38;;;;;;;;;;5049719;28;20028;-74
2022/11/29 08:56:08;;;;;;;5.47;1.50;;;;;;;;;;5049625;28;20388;-74
2022/11/29 08:58:33;;;;;;;6.38;1.55;;;;;;;;;;5049609;28;20063;-74
2022/11/29 09:00:59;;;;;;;8.63;1.90;;;;;;;;;;5050056;28;20057;-74
2022/11/29 09:06:11;;;;;;;4.95;1.40;;;;;;;;;;5049661;28;20041;-74
2022/11/29 09:08:37;;;;;;;5.07;1.50;;;;;;;;;;5050108;28;20025;-74
2022/11/29 09:11:07;;;;;;;9.70;1.80;;;;;;;;;;5049751;28;20024;-74
2022/11/29 09:13:33;;;;;;;9.40;1.90;;;;;;;;;;5049154;28;20027;-74
2022/11/29 09:15:58;;;;;;;8.93;2.25;;;;;;;;;;5049960;28;20100;-74
2022/11/29 09:18:23;;;;;;;8.48;1.70;;;;;;;;;;5049682;28;20017;-74
2022/11/29 09:20:49;;;;;;;6.70;1.80;;;;;;;;;;5049973;28;20468;-74
2022/11/29 09:23:14;;;;;;;4.40;1.10;;;;;;;;;;5049587;28;20522;-74
2022/11/29 09:25:40;;;;;;;5.15;1.60;;;;;;;;;;5049463;28;20064;-74
2022/11/29 09:28:06;;;;;;;6.45;1.85;;;;;;;;;;5049148;28;20021;-74
2022/11/29 09:30:33;;;;;;;5.55;1.42;;;;;;;;;;5049314;28;20017;-74
2022/11/29 09:33:01;;;;;;;7.32;1.50;;;;;;;;;;5049432;28;20024;-74
2022/11/29 09:35:28;;;;;;;6.28;1.23;;;;;;;;;;5049313;28;20024;-74
2022/11/29 09:37:54;;;;;;;5.80;1.42;;;;;;;;;;5049514;28;20025;-74
2022/11/29 09:40:26;;;;;;;7.20;1.35;;;;;;;;;;5049667;28;20028;-74
2022/11/29 09:43:06;;;;;;;5.68;1.40;;;;;;;;;;5049073;28;20029;-74
2022/11/29 09:45:40;;;;;;;4.68;1.25;;;;;;;;;;5049373;28;20033;-74
2022/11/29 09:48:14;;;;;;;6.32;1.33;;;;;;;;;;5049204;28;20090;-74
2022/11/29 09:50:49;;;;;;;7.20;1.30;;;;;;;;;;5049473;28;20191;-74
2022/11/29 09:53:37;;;;;;;6.10;1.08;;;;;;;;;;5049275;28;20067;-74
2022/11/29 09:56:09;;;;;;;8.35;1.30;;;;;;;;;;5049407;28;20036;-74
2022/11/29 09:58:54;;;;;;;5.53;2.00;;;;;;;;;;5048866;28;20037;-74
2022/11/29 10:01:27;;;;;;;7.03;1.30;;;;;;;;;;5049418;28;20025;-73
2022/11/29 10:03:58;;;;;;;4.53;1.20;;;;;;;;;;5049292;28;20454;-74
2022/11/29 10:06:32;;;;;;;5.40;1.13;;;;;;;;;;5049053;28;20041;-73
2022/11/29 10:09:22;;;;;;;7.47;1.20;;;;;;;;;;5052282;28;20036;-74
2022/11/29 10:12:01;;;;;;;6.53;1.10;;;;;;;;;;5052765;28;20040;-74
2022/11/29 10:14:40;;;;;;;5.13;1.20;;;;;;;;;;5052654;28;20040;-73
2022/11/29 10:17:45;;;;;;;4.72;1.00;;;;;;;;;;5051935;28;20032;-73
2022/11/29 10:20:17;;;;;;;6.10;1.38;;;;;;;;;;5048076;28;20114;-73
2022/11/29 10:22:48;;;;;;;6.82;1.20;;;;;;;;;;5053023;28;20096;-74
2022/11/29 10:25:44;;;;;;;5.20;1.30;;;;;;;;;;5052718;28;20040;-74
2022/11/29 10:28:15;;;;;;;7.57;1.60;;;;;;;;;;5042919;28;20040;-73
2022/11/29 10:30:42;;;;;;;7.10;1.60;;;;;;;;;;5053109;28;20045;-73
2022/11/29 10:33:26;;;;;;;7.97;1.65;;;;;;;;;;5052577;28;20400;-73
2022/11/29 10:35:56;;;;;;;6.78;1.48;;;;;;;;;;5052659;28;20013;-73
2022/11/29 10:38:23;;;;;;;8.05;1.63;;;;;;;;;;5052677;28;20100;-73
2022/11/29 10:40:54;;;;;;;4.85;1.20;;;;;;;;;;5052754;28;20025;-73
2022/11/29 10:43:20;;;;;;;6.53;1.52;;;;;;;;;;5052246;28;20028;-75
2022/11/29 10:45:49;;;;;;;6.15;1.20;;;;;;;;;;5052245;28;20071;-73
2022/11/29 10:48:17;;;;;;;8.35;1.38;;;;;;;;;;5052275;28;20120;-73
2022/11/29 10:50:47;;;;;;;8.23;1.73;;;;;;;;;;5052200;28;20040;-73
2022/11/29 10:53:15;;;;;;;8.43;1.23;;;;;;;;;;5052172;28;20049;-76
2022/11/29 10:56:01;;;;;;;9.73;1.50;;;;;;;;;;5052418;28;20341;-75
2022/11/29 10:58:28;;;;;;;7.47;1.50;;;;;;;;;;5051467;28;20083;-75
2022/11/29 11:00:56;;;;;;;4.70;1.20;;;;;;;;;;5052470;28;20048;-75
2022/11/29 11:03:32;;;;;;;6.18;1.55;;;;;;;;;;5052194;28;20029;-75
2022/11/29 11:06:25;;;;;;;6.05;1.42;;;;;;;;;;5052136;28;20029;-74
2022/11/29 11:08:54;;;;;;;5.13;1.40;;;;;;;;;;5051923;28;20622;-74
2022/11/29 11:11:30;;;;;;;6.20;1.45;;;;;;;;;;5052125;28;20059;-74
2022/11/29 11:14:15;;;;;;;7.80;1.55;;;;;;;;;;5051507;28;20033;-74
2022/11/29 11:16:41;;;;;;;6.22;1.58;;;;;;;;;;5050620;28;20083;-74
2022/11/29 11:19:27;;;;;;;6.22;1.40;;;;;;;;;;5051718;28;20029;-74
2022/11/29 11:21:56;;;;;;;5.85;1.60;;;;;;;;;;5051993;28;20032;-74
2022/11/29 11:24:55;;;;;;;6.10;1.40;;;;;;;;;;5051754;28;20028;-73
2022/11/29 11:27:32;;;;;;;11.65;2.05;;;;;;;;;;5051471;28;20112;-74
2022/11/29 11:29:59;;;;;;;10.60;1.85;;;;;;;;;;5050497;28;20400;-74
2022/11/29 11:32:25;;;;;;;8.85;1.90;;;;;;;;;;5051640;28;20037;-74
2022/11/29 11:34:56;;;;;;;8.43;1.98;;;;;;;;;;5051291;28;20029;-74
2022/11/29 11:37:28;;;;;;;9.45;2.45;;;;;;;;;;5051846;28;20029;-73
2022/11/29 11:39:59;;;;;;;8.15;2.30;;;;;;;;;;5051632;28;20040;-74
2022/11/29 11:42:39;;;;;;;7.85;2.55;;;;;;;;;;5051376;28;20021;-74
2022/11/29 11:45:10;;;;;;;7.05;1.85;;;;;;;;;;5051079;28;20048;-74
2022/11/29 11:47:43;;;;;;;9.27;2.00;;;;;;;;;;5051368;28;20484;-74
2022/11/29 11:50:16;;;;;;;7.57;2.15;;;;;;;;;;5051004;28;20029;-74
2022/11/29 11:52:51;;;;;;;7.57;1.98;;;;;;;;;;5051510;28;20025;-73
2022/11/29 11:55:28;;;;;;;7.47;1.95;;;;;;;;;;5051105;28;20558;-74
2022/11/29 11:58:00;;;;;;;8.05;1.88;;;;;;;;;;5051069;28;20570;-74
2022/11/29 12:00:43;;;;;;;10.00;2.17;;;;;;;;;;5049593;28;20032;-74
2022/11/29 12:03:27;;;;;;;8.23;1.95;;;;;;;;;;5051418;28;20029;-74
2022/11/29 12:05:58;;;;;;;9.30;2.03;;;;;;;;;;5050608;28;20036;-74
2022/11/29 12:08:26;;;;;;;8.38;2.00;;;;;;;;;;5050800;28;20032;-74
2022/11/29 12:10:57;;;;;;;9.35;2.53;;;;;;;;;;5050736;28;20028;-73
2022/11/29 12:13:26;;;;;;;7.90;1.80;;;;;;;;;;5050550;28;20064;-74
2022/11/29 12:15:54;;;;;;;8.63;1.70;;;;;;;;;;5050744;28;20041;-75
2022/11/29 12:18:49;;;;;;;8.35;1.92;;;;;;;;;;5051114;28;20109;-74
2022/11/29 12:21:20;;;;;;;9.75;1.70;;;;;;;;;;5050770;28;20033;-74
2022/11/29 12:24:01;;;;;;;;;;;;;;;;;;5051119;28;20108;-74
2022/11/29 12:26:37;;;;;;;6.55;1.55;;;;;;;;;;5050289;28;19913;-74
2022/11/29 12:29:18;;;;;;;8.70;1.88;;;;;;;;;;5049942;28;20043;-74
2022/11/29 12:31:43;;;;;;;8.65;2.10;;;;;;;;;;5049961;28;20036;-74
2022/11/29 12:34:39;;;;;;;10.60;2.40;;;;;;;;;;5050575;28;20029;-74
2022/11/29 12:37:13;;;;;;;10.82;3.15;;;;;;;;;;5050340;28;20032;-74
2022/11/29 12:39:48;;;;;;;15.10;2.60;;;;;;;;;;5050352;28;20129;-74
2022/11/29 12:42:40;;;;;;;9.18;2.50;;;;;;;;;;5050189;28;20482;-74
2022/11/29 12:45:24;;;;;;;13.85;2.50;;;;;;;;;;5045576;28;20045;-74
2022/11/29 12:48:34;;;;;;;10.70;2.10;;;;;;;;;;5050255;28;20032;-74
2022/11/29 12:51:01;;;;;;;8.27;2.22;;;;;;;;;;5027367;28;20033;-74
2022/11/29 12:53:41;;;;;;;6.93;2.00;;;;;;;;;;5047369;28;20033;-74
2022/11/29 12:56:29;;;;;;;9.57;2.13;;;;;;;;;;5048324;28;20033;-73
2022/11/29 12:59:15;;;;;;;8.60;1.73;;;;;;;;;;5049885;28;20025;-73
2022/11/29 13:02:01;;;;;;;8.68;2.00;;;;;;;;;;5050007;28;20029;-73
2022/11/29 13:05:08;;;;;;;8.85;1.95;;;;;;;;;;5049984;28;20028;-74
2022/11/29 13:08:01;;;;;;;6.18;1.25;;;;;;;;;;5049780;28;20558;-74
2022/11/29 13:11:04;;;;;;;6.93;1.50;;;;;;;;;;5049800;28;20036;-74
2022/11/29 13:13:44;;;;;;;9.75;2.00;;;;;;;;;;5049625;28;20373;-74
2022/11/29 13:16:37;;;;;;;7.53;1.90;;;;;;;;;;5049739;28;20385;-74
2022/11/29 13:19:33;;;;;;;7.07;1.80;;;;;;;;;;5049831;28;20036;-74
2022/11/29 13:22:09;;;;;;;11.00;1.92;;;;;;;;;;5049741;28;20096;-74
2022/11/29 13:24:44;;;;;;;5.82;1.75;;;;;;;;;;5049772;28;20021;-73
2022/11/29 13:27:17;;;;;;;10.52;2.03;;;;;;;;;;5049203;28;20028;-73
2022/11/29 13:29:42;;;;;;;8.80;2.10;;;;;;;;;;5049642;28;20027;-73
2022/11/29 13:32:29;;;;;;;8.15;1.70;;;;;;;;;;5049634;28;20024;-74
2022/11/29 13:35:01;;;;;;;9.93;2.10;;;;;;;;;;5049630;28;20061;-74
2022/11/29 13:37:32;;;;;;;5.57;1.70;;;;;;;;;;5049562;28;20031;-74
2022/11/29 13:40:06;;;;;;;10.30;2.20;;;;;;;;;;5049435;28;20036;-74
2022/11/29 13:42:54;;;;;;;10.63;2.10;;;;;;;;;;5048434;28;20473;-74
2022/11/29 13:45:38;;;;;;;11.45;1.80;;;;;;;;;;5049335;28;20087;-74
2022/11/29 13:48:21;;;;;;;7.30;1.95;;;;;;;;;;5049444;28;20032;-74
2022/11/29 13:50:47;;;;;;;8.15;1.77;;;;;;;;;;5049312;28;20025;-73
2022/11/29 13:53:17;;;;;;;7.97;1.92;;;;;;;;;;5049593;28;20025;-73
2022/11/29 13:55:47;;;;;;;9.38;1.70;;;;;;;;;;5049142;28;20113;-74
2022/11/29 13:58:32;;;;;;;10.55;1.90;;;;;;;;;;5049142;28;20055;-74
2022/11/29 14:01:01;;;;;;;6.13;1.63;;;;;;;;;;5049232;28;20029;-73
2022/11/29 14:03:33;;;;;;;8.52;1.60;;;;;;;;;;5049489;28;20483;-73
2022/11/29 14:06:12;;;;;;;8.43;1.88;;;;;;;;;;5048786;28;20033;-73
2022/11/29 14:08:44;;;;;;;11.43;2.00;;;;;;;;;;5049049;28;20033;-75
2022/11/29 14:11:12;;;;;;;9.40;1.60;;;;;;;;;;5049100;28;20027;-74
2022/11/29 14:13:47;;;;;;;9.43;1.80;;;;;;;;;;5049001;28;20036;-74
2022/11/29 14:16:31;;;;;;;6.63;1.70;;;;;;;;;;5049010;28;20028;-74
2022/11/29 14:19:08;;;;;;;10.13;1.98;;;;;;;;;;5049315;28;20504;-74
2022/11/29 14:22:05;;;;;;;8.00;1.67;;;;;;;;;;5048879;28;20082;-74
2022/11/29 14:24:36;;;;;;;9.32;1.95;;;;;;;;;;5049066;28;20025;-74
2022/11/29 14:27:04;;;;;;;11.25;1.67;;;;;;;;;;5048206;28;20036;-74
2022/11/29 14:29:48;;;;;;;9.45;1.65;;;;;;;;;;5049035;28;20112;-74
2022/11/29 14:32:35;;;;;;;8.45;1.80;;;;;;;;;;5048947;28;20100;-74
2022/11/29 14:35:10;;;;;;;5.95;1.90;;;;;;;;;;5049268;28;20029;-74
2022/11/29 14:38:03;;;;;;;9.60;1.58;;;;;;;;;;5048688;28;20427;-75
2022/11/29 14:40:40;;;;;;;9.85;1.60;;;;;;;;;;5049412;28;20029;-74
2022/11/29 14:43:35;;;;;;;6.95;1.40;;;;;;;;;;5048853;28;20043;-75
2022/11/29 14:46:14;;;;;;;9.95;1.60;;;;;;;;;;5048435;28;20059;-75
2022/11/29 14:48:44;;;;;;;6.75;1.60;;;;;;;;;;5048864;28;20040;-75
2022/11/29 14:51:18;;;;;;;9.45;1.42;;;;;;;;;;5048586;28;20353;-74
2022/11/29 14:53:46;;;;;;;5.38;1.25;;;;;;;;;;5050172;28;20530;-74
2022/11/29 14:56:48;;;;;;;10.18;1.80;;;;;;;;;;5052067;28;20048;-75
2022/11/29 14:59:38;;;;;;;6.70;1.50;;;;;;;;;;5052161;28;20084;-74
2022/11/29 15:02:07;;;;;;;7.17;1.63;;;;;;;;;;5052070;28;20115;-74
2022/11/29 15:04:34;;;;;;;9.05;1.42;;;;;;;;;;5052484;28;20260;-73
2022/11/29 15:07:00;;;;;;;7.20;1.30;;;;;;;;;;5051772;28;20057;-74
2022/11/29 15:09:28;;;;;;;5.80;1.30;;;;;;;;;;5052148;28;20032;-73
2022/11/29 15:12:22;;;;;;;7.78;1.42;;;;;;;;;;5052104;28;20108;-73
2022/11/29 15:15:33;;;;;;;6.75;1.45;;;;;;;;;;5043475;28;20503;-74
2022/11/29 15:18:35;;;;;;;7.10;1.30;;;;;;;;;;5043297;28;20036;-73
2022/11/29 15:21:29;;;;;;;9.40;1.80;;;;;;;;;;5051880;28;20033;-75
2022/11/29 15:24:05;;;;;;;9.48;1.50;;;;;;;;;;5051842;28;20031;-75
2022/11/29 15:26:31;;;;;;;11.05;1.70;;;;;;;;;;5051565;28;20029;-74
2022/11/29 15:29:14;;;;;;;9.98;1.80;;;;;;;;;;5051470;28;20029;-75
2022/11/29 15:31:41;;;;;;;10.43;1.58;;;;;;;;;;5051684;28;20029;-73
2022/11/29 15:34:18;;;;;;;7.47;1.60;;;;;;;;;;5051816;28;20023;-73
2022/11/29 15:36:44;;;;;;;9.15;1.70;;;;;;;;;;5051226;28;20119;-73
2022/11/29 15:39:28;;;;;;;9.35;1.85;;;;;;;;;;5051838;28;20104;-75
2022/11/29 15:41:59;;;;;;;9.93;2.08;;;;;;;;;;5051406;28;20496;-73
2022/11/29 15:44:24;;;;;;;6.93;1.70;;;;;;;;;;5051584;28;20511;-74